Time;durP1;ratioP1;P1;durP2;ratioP2;P2;SDS_P1;SDS_P2;PMS_P1;PMS_P2;Temp;Humidity;BMP_temperature;BMP_pressure;BME280_temperature;BME280_humidity;BME280_pressure;Samples;Min_cycle;Max_cycle;Signal;HPM_P1;HPM_P2
2022/06/16 00:01:46;;;;;;;12.48;4.78;;;21.80;77.00;;;;;;5073242;28;20221;-74
2022/06/16 00:04:15;;;;;;;12.07;4.95;;;21.80;77.10;;;;;;5068785;28;20194;-74
2022/06/16 00:06:44;;;;;;;9.82;5.07;;;21.80;77.30;;;;;;5060812;28;21822;-74
2022/06/16 00:09:12;;;;;;;8.80;4.72;;;21.80;77.40;;;;;;5055332;28;20198;-74
2022/06/16 00:11:41;;;;;;;16.13;5.32;;;21.80;77.60;;;;;;5055547;28;20216;-74
2022/06/16 00:14:10;;;;;;;11.95;4.75;;;21.70;77.80;;;;;;5066175;28;21080;-74
2022/06/16 00:16:39;;;;;;;12.18;5.07;;;21.80;77.90;;;;;;5059845;28;20737;-74
2022/06/16 00:19:08;;;;;;;11.85;5.22;;;21.70;78.00;;;;;;5056834;28;20702;-74
2022/06/16 00:21:36;;;;;;;11.13;5.10;;;21.70;78.00;;;;;;5068686;28;20267;-75
2022/06/16 00:24:05;;;;;;;11.80;5.22;;;21.80;78.30;;;;;;5067169;28;20199;-74
2022/06/16 00:26:34;;;;;;;12.63;5.40;;;21.80;78.40;;;;;;5063569;28;20202;-74
2022/06/16 00:29:02;;;;;;;11.15;5.43;;;21.80;78.40;;;;;;5067087;28;20276;-74
2022/06/16 00:31:39;;;;;;;12.73;5.10;;;21.70;78.50;;;;;;5070900;28;20858;-74
2022/06/16 00:34:07;;;;;;;14.57;5.03;;;21.80;78.50;;;;;;5061301;28;20277;-74
2022/06/16 00:36:37;;;;;;;8.88;4.60;;;21.80;78.60;;;;;;5071947;28;20201;-75
2022/06/16 00:39:06;;;;;;;10.95;4.97;;;21.80;78.60;;;;;;5063770;28;20208;-75
2022/06/16 00:41:34;;;;;;;12.02;5.72;;;21.70;78.60;;;;;;5066781;28;20222;-75
2022/06/16 00:44:16;;;;;;;11.23;5.15;;;21.80;78.70;;;;;;5059992;28;20195;-75
2022/06/16 00:46:46;;;;;;;10.05;5.30;;;21.70;78.80;;;;;;5053993;28;20193;-75
2022/06/16 00:49:15;;;;;;;7.78;4.90;;;21.70;78.80;;;;;;5058565;28;20398;-75
2022/06/16 00:51:46;;;;;;;17.35;5.75;;;21.70;79.00;;;;;;5061746;28;20190;-75
2022/06/16 00:54:20;;;;;;;13.07;5.68;;;21.70;79.10;;;;;;5065655;28;20190;-75
2022/06/16 00:56:49;;;;;;;8.23;4.00;;;21.70;79.10;;;;;;5059978;28;20194;-75
2022/06/16 00:59:19;;;;;;;11.30;5.35;;;21.70;79.30;;;;;;5060260;28;20198;-75
2022/06/16 01:01:49;;;;;;;12.15;5.22;;;21.70;79.40;;;;;;5061727;28;20222;-74
2022/06/16 01:07:07;;;;;;;10.50;5.68;;;21.70;79.40;;;;;;5070941;28;20190;-74
2022/06/16 01:09:37;;;;;;;7.85;5.07;;;21.70;79.50;;;;;;5062537;28;20199;-74
2022/06/16 01:15:23;;;;;;;11.23;5.32;;;21.70;79.80;;;;;;5051571;28;20206;-75
2022/06/16 01:18:01;;;;;;;13.20;5.75;;;21.60;79.90;;;;;;5064045;28;20194;-75
2022/06/16 01:20:38;;;;;;;14.35;5.47;;;21.60;80.00;;;;;;5056294;28;20550;-75
2022/06/16 01:23:46;;;;;;;15.00;5.65;;;21.60;80.10;;;;;;5065140;28;20210;-75
2022/06/16 01:26:40;;;;;;;10.77;5.25;;;21.60;80.40;;;;;;5052160;28;20186;-75
2022/06/16 01:29:17;;;;;;;11.88;5.57;;;21.60;80.50;;;;;;5053019;28;20218;-75
2022/06/16 01:31:54;;;;;;;7.78;5.00;;;21.60;80.60;;;;;;5063893;28;20218;-74
2022/06/16 01:34:28;;;;;;;11.82;5.68;;;21.60;80.70;;;;;;5065476;28;20198;-74
2022/06/16 01:37:04;;;;;;;12.00;5.60;;;21.50;80.80;;;;;;5063891;28;20827;-75
2022/06/16 01:39:41;;;;;;;14.75;5.60;;;21.50;80.90;;;;;;5058073;28;20194;-74
2022/06/16 01:42:15;;;;;;;8.48;5.10;;;21.50;81.10;;;;;;5063750;28;20210;-75
2022/06/16 01:44:55;;;;;;;9.20;5.60;;;21.50;81.20;;;;;;5053567;28;20194;-75
2022/06/16 01:47:27;;;;;;;11.27;5.15;;;21.50;81.30;;;;;;5049673;28;20189;-74
2022/06/16 01:50:01;;;;;;;9.57;5.22;;;21.50;81.40;;;;;;5063083;28;20186;-73
2022/06/16 01:52:38;;;;;;;9.90;5.22;;;21.40;81.40;;;;;;5059766;28;20201;-74
2022/06/16 01:55:11;;;;;;;9.18;5.13;;;21.40;81.60;;;;;;5063326;28;20695;-74
2022/06/16 01:57:43;;;;;;;8.13;5.53;;;21.40;81.70;;;;;;5066359;28;20198;-75
2022/06/16 02:00:17;;;;;;;11.57;5.03;;;21.30;81.70;;;;;;5058887;28;20194;-74
2022/06/16 02:02:49;;;;;;;10.93;4.95;;;21.30;82.00;;;;;;5067830;28;20999;-75
2022/06/16 02:05:24;;;;;;;8.38;4.82;;;21.30;82.10;;;;;;5052940;28;20217;-75
2022/06/16 02:07:56;;;;;;;9.40;5.10;;;21.30;82.20;;;;;;5060379;28;20186;-74
2022/06/16 02:10:29;;;;;;;11.30;5.53;;;21.20;82.20;;;;;;5054680;28;20194;-75
2022/06/16 02:12:59;;;;;;;9.80;5.07;;;21.20;82.30;;;;;;5068211;28;20190;-74
2022/06/16 02:15:37;;;;;;;9.95;5.18;;;21.20;82.30;;;;;;5063923;28;20194;-75
2022/06/16 02:18:08;;;;;;;7.57;4.65;;;21.20;82.60;;;;;;5054527;28;20277;-74
2022/06/16 02:20:47;;;;;;;10.00;4.50;;;21.10;82.60;;;;;;5057676;28;20182;-75
2022/06/16 02:23:16;;;;;;;9.43;5.10;;;21.10;82.70;;;;;;5070781;28;20204;-74
2022/06/16 02:25:47;;;;;;;11.98;5.72;;;21.10;82.70;;;;;;5064734;28;20208;-74
2022/06/16 02:28:16;;;;;;;8.45;4.40;;;21.00;82.80;;;;;;5060340;28;20190;-75
2022/06/16 02:30:55;;;;;;;8.40;4.68;;;21.10;82.80;;;;;;5058376;28;21167;-75
2022/06/16 02:33:33;;;;;;;7.35;4.75;;;21.00;82.90;;;;;;5067491;28;20216;-75
2022/06/16 02:36:15;;;;;;;9.50;4.90;;;21.00;83.10;;;;;;5063506;28;20190;-74
2022/06/16 02:38:53;;;;;;;7.93;4.88;;;21.00;83.20;;;;;;5059490;28;20539;-75
2022/06/16 02:41:33;;;;;;;13.32;5.15;;;21.00;83.20;;;;;;5061395;28;20639;-74
2022/06/16 02:44:12;;;;;;;7.90;4.65;;;21.00;83.20;;;;;;5069736;28;20214;-74
2022/06/16 02:46:51;;;;;;;8.20;5.00;;;21.00;83.20;;;;;;5049541;28;20274;-75
2022/06/16 02:49:28;;;;;;;9.27;4.67;;;21.00;83.30;;;;;;5049131;28;20225;-74
2022/06/16 02:52:23;;;;;;;8.00;4.93;;;21.00;83.30;;;;;;5055563;28;20194;-76
2022/06/16 02:54:58;;;;;;;7.03;4.87;;;20.90;83.30;;;;;;5053600;28;20700;-77
2022/06/16 02:57:34;;;;;;;10.27;4.63;;;20.90;83.40;;;;;;5054286;28;20201;-75
2022/06/16 03:00:07;;;;;;;7.27;4.60;;;20.90;83.60;;;;;;5057461;28;20242;-74
2022/06/16 03:02:40;;;;;;;6.40;4.70;;;20.90;83.80;;;;;;5064685;28;20198;-74
2022/06/16 03:05:11;;;;;;;7.40;5.35;;;20.80;83.80;;;;;;5063898;28;20190;-75
2022/06/16 03:07:41;;;;;;;8.47;4.40;;;20.80;83.90;;;;;;5054685;28;20189;-75
2022/06/16 03:10:14;;;;;;;14.33;4.87;;;20.80;84.10;;;;;;5067213;28;20218;-75
2022/06/16 03:12:42;;;;;;;9.60;5.67;;;20.80;84.10;;;;;;5059535;28;20182;-75
2022/06/16 03:15:11;;;;;;;10.93;5.23;;;20.80;84.20;;;;;;5063997;28;20198;-74
2022/06/16 03:17:41;;;;;;;9.63;5.03;;;20.80;84.40;;;;;;5053122;28;20194;-74
2022/06/16 03:20:12;;;;;;;11.37;5.00;;;20.80;84.40;;;;;;5049705;28;20187;-75
2022/06/16 03:22:40;;;;;;;11.43;5.43;;;20.80;84.50;;;;;;5063975;28;20233;-74
2022/06/16 03:25:11;;;;;;;10.17;5.43;;;20.70;84.50;;;;;;5053631;28;20191;-75
2022/06/16 03:27:40;;;;;;;8.70;5.83;;;20.70;84.50;;;;;;5061449;28;20352;-74
2022/06/16 03:30:09;;;;;;;12.23;5.80;;;20.70;84.70;;;;;;5059103;28;20191;-75
2022/06/16 03:32:37;;;;;;;9.27;5.80;;;20.70;84.70;;;;;;5067957;28;20889;-74
2022/06/16 03:35:08;;;;;;;9.07;5.43;;;20.70;84.60;;;;;;5060074;28;20191;-74
2022/06/16 03:37:36;;;;;;;12.07;5.13;;;20.70;84.70;;;;;;5074049;28;20186;-75
2022/06/16 03:40:07;;;;;;;11.40;5.77;;;20.70;84.70;;;;;;5066822;28;20202;-75
2022/06/16 03:42:35;;;;;;;15.03;6.13;;;20.70;84.80;;;;;;5061738;28;20703;-75
2022/06/16 03:45:04;;;;;;;9.87;5.73;;;20.70;84.90;;;;;;5062779;28;20189;-75
2022/06/16 03:47:33;;;;;;;11.50;5.90;;;20.70;84.80;;;;;;5054720;28;20205;-75
2022/06/16 03:50:01;;;;;;;10.27;5.50;;;20.70;85.00;;;;;;5052172;28;20201;-75
2022/06/16 03:52:31;;;;;;;15.10;6.10;;;20.70;85.00;;;;;;5062592;28;20194;-74
2022/06/16 03:54:59;;;;;;;12.27;7.07;;;20.70;85.20;;;;;;5057112;28;20198;-74
2022/06/16 03:57:28;;;;;;;12.63;8.35;;;20.80;85.50;;;;;;5061109;28;20764;-74
2022/06/16 03:59:56;;;;;;;16.40;8.27;;;20.80;85.60;;;;;;5056358;28;20182;-75
2022/06/16 04:02:24;;;;;;;16.40;8.73;;;20.80;85.70;;;;;;5064481;28;20189;-74
2022/06/16 04:04:53;;;;;;;13.13;6.47;;;20.80;85.70;;;;;;5054146;28;20217;-75
2022/06/16 04:07:21;;;;;;;9.40;5.70;;;20.80;86.20;;;;;;5067288;28;20187;-74
2022/06/16 04:09:51;;;;;;;15.10;5.97;;;20.90;86.10;;;;;;5068264;28;20672;-75
2022/06/16 04:12:20;;;;;;;7.90;5.53;;;20.90;86.30;;;;;;5065516;28;20699;-74
2022/06/16 04:14:48;;;;;;;9.85;5.28;;;20.90;86.50;;;;;;5074226;28;20201;-74
2022/06/16 04:17:16;;;;;;;12.13;5.53;;;20.90;86.60;;;;;;5066360;28;20198;-74
2022/06/16 04:22:27;;;;;;;11.10;5.50;;;21.00;86.60;;;;;;5066802;28;20181;-74
2022/06/16 04:24:56;;;;;;;10.43;4.90;;;21.00;86.50;;;;;;5071695;28;20224;-72
2022/06/16 04:27:25;;;;;;;13.82;5.60;;;21.10;86.60;;;;;;5060849;28;20190;-73
2022/06/16 04:29:53;;;;;;;8.45;4.80;;;21.10;86.50;;;;;;5078364;28;20186;-75
2022/06/16 04:32:21;;;;;;;8.52;4.97;;;21.10;86.40;;;;;;5067035;28;20240;-74
2022/06/16 04:34:50;;;;;;;11.82;5.22;;;21.10;86.20;;;;;;5063965;28;20612;-74
2022/06/16 04:37:19;;;;;;;9.02;5.18;;;21.20;86.10;;;;;;5063628;28;20186;-75
2022/06/16 04:39:47;;;;;;;10.43;5.75;;;21.20;86.10;;;;;;5071491;28;20201;-75
2022/06/16 04:42:17;;;;;;;8.50;5.63;;;21.20;86.00;;;;;;5070077;28;20186;-75
2022/06/16 04:44:45;;;;;;;8.88;5.70;;;21.30;86.10;;;;;;5064887;28;20222;-74
2022/06/16 04:47:14;;;;;;;10.82;5.55;;;21.40;86.00;;;;;;5065277;28;20198;-75
2022/06/16 04:49:43;;;;;;;13.77;5.50;;;21.40;86.00;;;;;;5064036;28;20565;-73
2022/06/16 04:52:12;;;;;;;11.02;5.53;;;21.50;86.00;;;;;;5056688;28;20211;-75
2022/06/16 04:54:43;;;;;;;10.52;5.68;;;21.50;86.10;;;;;;5060982;28;20198;-74
2022/06/16 04:57:12;;;;;;;13.23;5.70;;;21.50;86.10;;;;;;5063949;28;20186;-75
2022/06/16 04:59:42;;;;;;;9.70;5.72;;;21.60;86.10;;;;;;5066926;28;20199;-75
2022/06/16 05:02:11;;;;;;;9.18;6.43;;;21.60;86.00;;;;;;5058632;28;20927;-74
2022/06/16 05:04:41;;;;;;;11.90;5.97;;;21.70;86.10;;;;;;5061294;28;20325;-74
2022/06/16 05:07:09;;;;;;;13.63;6.05;;;21.80;86.00;;;;;;5064364;28;20200;-75
2022/06/16 05:09:38;;;;;;;9.05;5.38;;;21.80;85.90;;;;;;5066497;28;20194;-76
2022/06/16 05:12:07;;;;;;;11.60;5.80;;;21.90;85.80;;;;;;5068371;28;20197;-74
2022/06/16 05:14:36;;;;;;;14.27;6.80;;;21.90;85.70;;;;;;5057802;28;20216;-74
2022/06/16 05:17:06;;;;;;;9.20;5.78;;;22.00;85.60;;;;;;5064436;28;20202;-75
2022/06/16 05:19:34;;;;;;;11.73;5.65;;;22.10;85.60;;;;;;5058653;28;20402;-74
2022/06/16 05:22:06;;;;;;;10.80;5.72;;;22.10;85.50;;;;;;5075716;28;20556;-74
2022/06/16 05:24:35;;;;;;;9.63;6.05;;;22.20;85.40;;;;;;5069477;28;20932;-75
2022/06/16 05:27:04;;;;;;;7.70;5.22;;;22.30;85.30;;;;;;5071162;28;20200;-75
2022/06/16 05:29:33;;;;;;;7.53;4.70;;;22.40;85.30;;;;;;5068232;28;20200;-75
2022/06/16 05:32:01;;;;;;;10.50;5.28;;;22.40;85.10;;;;;;5065539;28;20214;-75
2022/06/16 05:34:31;;;;;;;7.20;4.47;;;22.50;84.90;;;;;;5066902;28;20309;-74
2022/06/16 05:36:59;;;;;;;11.02;4.38;;;22.60;84.50;;;;;;5068365;28;20194;-75
2022/06/16 05:39:27;;;;;;;7.30;4.82;;;22.70;84.20;;;;;;5065771;28;20201;-75
2022/06/16 05:41:56;;;;;;;8.40;4.53;;;22.70;84.00;;;;;;5066007;28;20205;-74
2022/06/16 05:44:24;;;;;;;8.02;4.13;;;22.80;83.80;;;;;;5059279;28;20222;-75
2022/06/16 05:46:53;;;;;;;7.03;4.00;;;22.90;83.60;;;;;;5070550;28;20288;-75
2022/06/16 05:49:22;;;;;;;8.50;4.45;;;22.90;83.30;;;;;;5060408;28;20183;-74
2022/06/16 05:51:52;;;;;;;8.05;4.03;;;23.00;82.80;;;;;;5068880;28;20205;-75
2022/06/16 05:54:20;;;;;;;7.13;3.97;;;23.10;82.50;;;;;;5066777;28;20221;-75
2022/06/16 05:56:48;;;;;;;12.35;4.07;;;23.20;82.10;;;;;;5065393;28;20198;-74
2022/06/16 06:02:47;;;;;;;6.07;3.95;;;23.30;81.80;;;;;;5050464;28;20216;-75
2022/06/16 06:05:17;;;;;;;6.03;3.53;;;23.40;81.40;;;;;;5065120;28;20213;-76
2022/06/16 06:18:52;;;;;;;8.00;4.53;;;23.80;80.10;;;;;;5059134;28;20198;-74
2022/06/16 06:21:58;;;;;;;5.47;4.00;;;23.80;79.70;;;;;;5063190;28;20195;-75
2022/06/16 06:24:12;;;;;;;5.57;4.00;;;23.90;79.70;;;;;;5060383;28;20230;-74
2022/06/16 06:26:40;;;;;;;4.85;3.70;;;24.00;79.40;;;;;;5060441;28;20592;-74
2022/06/16 06:29:11;;;;;;;7.30;3.50;;;24.00;79.20;;;;;;5061943;28;20678;-73
2022/06/16 06:31:39;;;;;;;6.53;3.47;;;24.10;79.30;;;;;;5066176;28;20887;-74
2022/06/16 06:34:07;;;;;;;8.40;3.70;;;24.20;79.40;;;;;;5064072;28;20206;-74
2022/06/16 06:36:36;;;;;;;7.15;3.28;;;24.30;79.20;;;;;;5063010;28;20834;-73
2022/06/16 06:39:05;;;;;;;6.50;3.25;;;24.30;78.90;;;;;;5062813;28;20189;-74
2022/06/16 06:41:34;;;;;;;7.43;3.67;;;24.40;78.90;;;;;;5063454;28;20194;-72
2022/06/16 06:44:03;;;;;;;5.47;2.65;;;24.50;79.00;;;;;;5062452;28;20229;-75
2022/06/16 06:46:31;;;;;;;5.97;2.63;;;24.50;78.70;;;;;;5052305;28;20211;-75
2022/06/16 06:49:03;;;;;;;6.05;2.65;;;24.60;78.80;;;;;;5064131;28;20198;-75
2022/06/16 06:51:32;;;;;;;7.60;2.70;;;24.60;78.40;;;;;;5060750;28;20190;-75
2022/06/16 06:54:01;;;;;;;5.72;2.80;;;24.70;78.00;;;;;;5063874;28;20198;-75
2022/06/16 06:56:31;;;;;;;5.90;3.10;;;24.70;77.60;;;;;;5061876;28;20672;-75
2022/06/16 06:59:05;;;;;;;4.32;2.58;;;24.80;77.60;;;;;;5059000;28;20197;-75
2022/06/16 07:01:34;;;;;;;6.20;3.00;;;24.80;77.20;;;;;;5046424;28;20207;-75
2022/06/16 07:04:03;;;;;;;7.50;3.15;;;24.80;76.50;;;;;;5062100;28;20194;-75
2022/06/16 07:06:32;;;;;;;6.32;3.42;;;24.90;75.40;;;;;;5066245;28;20230;-75
2022/06/16 07:09:00;;;;;;;3.78;2.67;;;24.90;76.20;;;;;;5059501;28;20194;-74
2022/06/16 07:11:29;;;;;;;8.60;3.05;;;25.00;75.50;;;;;;5062709;28;20191;-74
2022/06/16 07:13:58;;;;;;;6.95;2.80;;;25.00;74.90;;;;;;5062878;28;20285;-75
2022/06/16 07:16:29;;;;;;;6.80;2.38;;;25.10;75.20;;;;;;5073269;28;20186;-76
2022/06/16 07:18:58;;;;;;;5.75;2.47;;;25.10;74.30;;;;;;5073871;28;20193;-75
2022/06/16 07:21:26;;;;;;;5.18;2.10;;;25.20;73.90;;;;;;5065993;28;20191;-74
2022/06/16 07:23:55;;;;;;;10.90;2.50;;;25.20;72.20;;;;;;5062864;28;20194;-75
2022/06/16 07:26:24;;;;;;;2.55;1.73;;;25.20;72.20;;;;;;5063633;28;20222;-74
2022/06/16 07:28:52;;;;;;;5.10;2.13;;;25.30;72.00;;;;;;5062647;28;20205;-75
2022/06/16 07:31:21;;;;;;;5.75;2.33;;;25.40;71.90;;;;;;5062809;28;20229;-75
2022/06/16 07:34:06;;;;;;;4.65;2.17;;;25.40;70.70;;;;;;5064137;28;20194;-74
2022/06/16 07:36:34;;;;;;;4.22;2.20;;;25.40;70.40;;;;;;5062677;28;20210;-74
2022/06/16 07:39:05;;;;;;;4.65;2.13;;;25.40;69.10;;;;;;5064138;28;20199;-74
2022/06/16 07:41:34;;;;;;;3.65;2.10;;;25.50;68.40;;;;;;5060933;28;20558;-75
2022/06/16 07:44:05;;;;;;;3.72;1.90;;;25.50;69.00;;;;;;5067749;28;20201;-75
2022/06/16 07:46:35;;;;;;;4.40;1.70;;;25.60;68.70;;;;;;5069779;28;20215;-75
2022/06/16 07:49:04;;;;;;;3.80;1.88;;;25.60;67.30;;;;;;5065382;28;20194;-75
2022/06/16 07:54:10;;;;;;;9.77;2.53;;;25.60;68.50;;;;;;3231594;26;20259;-76
2022/06/16 07:56:59;;;;;;;8.70;2.22;;;25.70;68.40;;;;;;4984529;28;20272;-76
2022/06/16 07:59:27;;;;;;;9.82;2.28;;;25.70;69.00;;;;;;4984020;28;20201;-75
2022/06/16 08:01:55;;;;;;;5.97;2.22;;;25.80;68.30;;;;;;4983325;28;20545;-76
2022/06/16 08:04:24;;;;;;;6.00;2.00;;;25.80;67.10;;;;;;4982007;28;20193;-76
2022/06/16 08:06:53;;;;;;;3.65;1.80;;;25.80;66.50;;;;;;4985501;28;20229;-77
2022/06/16 08:09:23;;;;;;;6.40;1.98;;;25.90;66.40;;;;;;4986738;28;20197;-77
2022/06/16 08:12:04;;;;;;;4.47;1.90;;;25.90;66.40;;;;;;4971804;28;20260;-77
2022/06/16 08:14:36;;;;;;;4.75;1.90;;;26.00;66.50;;;;;;4985786;28;20193;-77
2022/06/16 08:17:06;;;;;;;3.60;1.77;;;26.10;65.50;;;;;;4986688;28;20982;-76
2022/06/16 08:19:34;;;;;;;4.55;1.85;;;26.10;65.50;;;;;;4991286;28;20303;-77
2022/06/16 08:22:03;;;;;;;6.90;2.05;;;26.10;65.70;;;;;;4987739;28;20201;-76
2022/06/16 08:24:33;;;;;;;3.00;1.60;;;26.20;65.50;;;;;;4984033;28;20209;-77
2022/06/16 08:27:02;;;;;;;3.97;2.20;;;26.20;65.70;;;;;;4983242;28;20221;-77
2022/06/16 08:29:32;;;;;;;4.25;2.17;;;26.20;65.90;;;;;;4986042;28;20205;-76
2022/06/16 08:32:00;;;;;;;7.10;2.13;;;26.30;66.10;;;;;;4985203;28;20193;-74
2022/06/16 08:34:29;;;;;;;5.32;2.00;;;26.30;66.30;;;;;;4986197;28;20197;-75
2022/06/16 08:36:57;;;;;;;3.13;2.13;;;26.40;66.40;;;;;;4992457;28;20197;-78
2022/06/16 08:39:26;;;;;;;3.70;2.00;;;26.50;66.70;;;;;;4985363;28;20195;-77
2022/06/16 08:42:03;;;;;;;8.13;2.30;;;26.50;66.50;;;;;;4984198;28;20420;-75
2022/06/16 08:44:42;;;;;;;4.40;2.47;;;26.50;66.00;;;;;;4981112;28;20281;-76
2022/06/16 08:47:18;;;;;;;23.05;3.55;;;26.60;65.90;;;;;;4985308;28;20209;-76
2022/06/16 08:49:57;;;;;;;4.53;2.22;;;26.60;66.30;;;;;;4982222;28;20228;-80
2022/06/16 08:52:36;;;;;;;5.97;1.92;;;26.70;66.60;;;;;;4984732;28;20502;-76
2022/06/16 08:55:12;;;;;;;3.85;2.20;;;26.70;65.60;;;;;;4983629;28;20228;-77
2022/06/16 08:57:56;;;;;;;4.25;1.90;;;26.80;64.10;;;;;;4982659;28;20203;-77
2022/06/16 09:00:34;;;;;;;8.00;2.20;;;26.80;63.70;;;;;;4982536;28;20199;-76
2022/06/16 09:03:09;;;;;;;4.43;2.08;;;26.80;63.70;;;;;;4987710;28;20413;-77
2022/06/16 09:05:48;;;;;;;3.95;2.38;;;26.80;63.70;;;;;;4984770;28;20216;-77
2022/06/16 09:08:30;;;;;;;5.40;2.20;;;26.80;64.60;;;;;;4986101;28;20280;-80
2022/06/16 09:11:07;;;;;;;3.80;2.30;;;26.70;63.50;;;;;;4980686;28;20442;-78
2022/06/16 09:13:54;;;;;;;4.10;2.08;;;26.80;62.90;;;;;;4981492;28;20193;-78
2022/06/16 09:16:33;;;;;;;7.22;2.28;;;26.70;63.00;;;;;;4987764;28;20189;-78
2022/06/16 09:19:32;;;;;;;4.25;2.33;;;26.70;63.30;;;;;;4979451;28;20649;-78
2022/06/16 09:22:12;;;;;;;5.30;2.38;;;26.70;63.60;;;;;;4963995;28;20208;-78
2022/06/16 09:25:09;;;;;;;5.88;1.95;;;26.80;63.60;;;;;;4983866;28;20910;-80
2022/06/16 09:27:44;;;;;;;4.70;2.60;;;26.80;63.00;;;;;;4966369;28;20252;-78
2022/06/16 09:30:19;;;;;;;4.25;2.28;;;26.80;63.20;;;;;;4983010;28;20315;-78
2022/06/16 09:32:52;;;;;;;6.50;2.03;;;26.80;63.70;;;;;;4982186;28;20797;-77
2022/06/16 09:35:27;;;;;;;4.60;2.08;;;26.80;63.10;;;;;;4983319;28;20336;-77
2022/06/16 09:38:02;;;;;;;3.47;2.28;;;26.80;62.80;;;;;;4983417;28;20193;-77
2022/06/16 09:40:38;;;;;;;9.38;2.40;;;26.80;62.70;;;;;;4983757;28;20686;-77
2022/06/16 09:43:11;;;;;;;3.95;2.13;;;26.90;62.10;;;;;;4979911;28;20607;-76
2022/06/16 09:45:47;;;;;;;5.35;2.33;;;27.00;62.50;;;;;;4984023;28;20189;-76
2022/06/16 09:48:21;;;;;;;6.13;2.50;;;27.10;62.00;;;;;;4980186;28;20204;-77
2022/06/16 09:50:55;;;;;;;6.07;2.08;;;27.10;61.10;;;;;;4982261;28;20189;-78
2022/06/16 09:53:33;;;;;;;3.80;2.50;;;27.20;61.00;;;;;;4982814;28;20581;-77
2022/06/16 09:56:06;;;;;;;5.75;1.92;;;27.30;60.10;;;;;;4980934;28;20209;-76
2022/06/16 09:58:41;;;;;;;4.18;2.22;;;27.40;60.20;;;;;;4984323;28;20185;-79
2022/06/16 10:01:14;;;;;;;3.63;1.83;;;27.50;59.40;;;;;;4981315;28;20193;-78
2022/06/16 10:03:52;;;;;;;5.18;2.40;;;27.60;59.60;;;;;;4982459;28;20648;-77
2022/06/16 10:06:28;;;;;;;3.83;2.05;;;27.60;59.60;;;;;;4980840;28;20292;-77
2022/06/16 10:09:08;;;;;;;2.95;1.70;;;27.70;59.80;;;;;;4981194;28;20193;-78
2022/06/16 10:11:49;;;;;;;4.85;2.10;;;27.80;59.60;;;;;;4987797;28;20213;-79
2022/06/16 10:14:26;;;;;;;4.97;2.30;;;27.80;59.40;;;;;;4986425;28;20561;-78
2022/06/16 10:16:59;;;;;;;4.00;2.20;;;27.90;59.30;;;;;;4980085;28;20640;-79
2022/06/16 10:19:30;;;;;;;6.57;2.47;;;28.00;59.60;;;;;;4985424;28;20916;-79
2022/06/16 10:22:01;;;;;;;12.15;2.50;;;28.00;59.20;;;;;;4980166;28;20199;-75
2022/06/16 10:24:38;;;;;;;3.22;2.10;;;28.10;58.30;;;;;;4979448;28;20189;-76
2022/06/16 10:27:07;;;;;;;6.53;2.15;;;28.10;58.40;;;;;;4979486;28;20217;-78
2022/06/16 10:29:36;;;;;;;4.65;2.17;;;28.10;58.00;;;;;;4983028;28;20203;-77
2022/06/16 10:32:16;;;;;;;3.30;2.22;;;28.00;58.20;;;;;;4981825;28;20196;-76
2022/06/16 10:34:52;;;;;;;3.17;2.15;;;28.00;58.20;;;;;;4979832;28;20812;-77
2022/06/16 10:37:24;;;;;;;4.32;1.88;;;28.00;58.10;;;;;;4980553;28;20189;-77
2022/06/16 10:39:56;;;;;;;4.43;2.13;;;28.00;58.30;;;;;;4977220;28;20228;-77
2022/06/16 10:42:28;;;;;;;4.05;1.73;;;28.00;58.40;;;;;;4982195;28;20454;-78
2022/06/16 10:44:59;;;;;;;6.10;2.85;;;28.00;58.30;;;;;;4983847;28;20196;-77
2022/06/16 10:47:34;;;;;;;4.68;2.45;;;28.00;58.20;;;;;;4980980;28;20223;-76
2022/06/16 10:50:07;;;;;;;5.05;2.33;;;28.10;58.00;;;;;;4970970;28;20472;-76
2022/06/16 10:52:40;;;;;;;3.30;1.90;;;28.10;58.20;;;;;;4985129;28;20288;-77
2022/06/16 10:55:20;;;;;;;3.80;2.20;;;28.20;58.10;;;;;;4984716;28;20200;-75
2022/06/16 10:57:57;;;;;;;5.40;2.17;;;28.30;58.40;;;;;;4982490;28;20204;-76
2022/06/16 11:00:27;;;;;;;5.85;2.65;;;28.30;58.30;;;;;;4987944;28;20196;-78
2022/06/16 11:03:02;;;;;;;2.75;1.98;;;28.40;57.80;;;;;;4984046;28;20203;-77
2022/06/16 11:05:38;;;;;;;5.03;2.15;;;28.40;57.50;;;;;;4981551;28;20199;-76
2022/06/16 11:08:10;;;;;;;5.05;2.25;;;28.50;57.10;;;;;;4983405;28;20220;-76
2022/06/16 11:10:59;;;;;;;2.90;1.98;;;28.50;57.30;;;;;;4975659;28;20514;-75
2022/06/16 11:13:31;;;;;;;3.97;2.15;;;28.60;56.90;;;;;;4983382;28;20762;-76
2022/06/16 11:16:00;;;;;;;3.10;1.80;;;28.60;57.00;;;;;;4977998;28;20201;-76
2022/06/16 11:18:33;;;;;;;3.20;1.88;;;28.70;57.00;;;;;;4976586;28;20253;-77
2022/06/16 11:21:14;;;;;;;4.00;2.10;;;28.70;57.10;;;;;;4976095;28;20198;-75
2022/06/16 11:23:47;;;;;;;3.13;2.13;;;28.80;57.20;;;;;;4973602;28;20252;-76
2022/06/16 11:26:27;;;;;;;8.20;2.15;;;28.90;57.20;;;;;;4980111;28;20185;-76
2022/06/16 11:28:57;;;;;;;8.00;2.75;;;28.90;56.80;;;;;;4981642;28;20193;-78
2022/06/16 11:31:39;;;;;;;3.65;1.80;;;29.00;57.10;;;;;;4979997;28;20955;-76
2022/06/16 11:34:15;;;;;;;4.97;1.88;;;29.10;57.30;;;;;;4974964;28;20280;-77
2022/06/16 11:37:05;;;;;;;4.03;1.90;;;29.10;56.80;;;;;;4981677;28;20200;-76
2022/06/16 11:39:51;;;;;;;3.60;2.15;;;29.10;56.40;;;;;;4981565;28;20909;-76
2022/06/16 11:42:34;;;;;;;2.58;1.90;;;29.20;56.60;;;;;;4978719;28;20595;-76
2022/06/16 11:45:09;;;;;;;5.45;2.30;;;29.20;56.90;;;;;;4984250;28;20534;-78
2022/06/16 11:47:46;;;;;;;4.78;2.00;;;29.20;56.70;;;;;;4985000;28;20235;-76
2022/06/16 11:50:25;;;;;;;5.75;2.08;;;29.20;56.20;;;;;;4979580;28;20224;-78
2022/06/16 11:53:00;;;;;;;4.95;2.00;;;29.30;56.30;;;;;;4979969;28;20216;-76
2022/06/16 11:55:36;;;;;;;3.00;1.73;;;29.40;55.50;;;;;;4981801;28;20193;-80
2022/06/16 11:58:28;;;;;;;2.63;1.60;;;29.50;55.70;;;;;;4985778;28;20201;-77
2022/06/16 12:01:03;;;;;;;6.55;1.92;;;29.50;55.40;;;;;;4983710;28;20197;-76
2022/06/16 12:03:53;;;;;;;3.10;2.05;;;29.50;55.50;;;;;;4982749;28;20281;-79
2022/06/16 12:06:37;;;;;;;3.42;1.88;;;29.60;54.70;;;;;;4976102;28;20205;-79
2022/06/16 12:09:29;;;;;;;6.05;1.98;;;29.60;54.70;;;;;;4986547;28;20663;-78
2022/06/16 12:12:07;;;;;;;4.47;1.85;;;29.70;53.90;;;;;;4977861;28;20578;-77
2022/06/16 12:14:48;;;;;;;6.15;2.13;;;29.70;54.30;;;;;;4985450;28;20668;-77
2022/06/16 12:17:22;;;;;;;4.20;2.10;;;29.80;54.40;;;;;;4986361;28;20193;-78
2022/06/16 12:19:59;;;;;;;5.88;1.77;;;29.90;54.60;;;;;;4983561;28;20659;-77
2022/06/16 12:22:55;;;;;;;4.90;1.77;;;30.00;55.20;;;;;;4977457;28;20208;-76
2022/06/16 12:25:31;;;;;;;2.75;1.65;;;30.10;54.10;;;;;;4977979;28;20189;-76
2022/06/16 12:28:08;;;;;;;3.47;2.15;;;30.20;54.80;;;;;;4981415;28;20216;-78
2022/06/16 12:30:45;;;;;;;2.92;1.83;;;30.20;54.50;;;;;;4980893;28;20196;-78
2022/06/16 12:33:20;;;;;;;3.30;1.83;;;30.30;54.00;;;;;;4980194;28;20199;-76
2022/06/16 12:35:55;;;;;;;3.83;1.80;;;30.50;54.50;;;;;;4980933;28;20199;-78
2022/06/16 12:38:30;;;;;;;3.33;1.80;;;30.60;54.10;;;;;;4983947;28;20449;-77
2022/06/16 12:41:05;;;;;;;2.78;2.00;;;30.70;53.20;;;;;;4981134;28;20276;-77
2022/06/16 12:43:37;;;;;;;5.43;1.83;;;30.90;52.60;;;;;;4976260;28;20193;-76
2022/06/16 12:46:08;;;;;;;2.53;1.40;;;31.00;52.90;;;;;;4983131;28;20186;-77
2022/06/16 12:48:45;;;;;;;2.67;2.10;;;31.20;53.00;;;;;;4983426;28;20724;-76
2022/06/16 12:51:16;;;;;;;3.15;2.00;;;31.40;53.20;;;;;;4983055;28;20193;-77
2022/06/16 12:53:51;;;;;;;3.97;1.75;;;31.60;53.30;;;;;;4983762;28;20235;-76
2022/06/16 12:56:26;;;;;;;2.13;1.85;;;31.90;52.90;;;;;;4985239;28;20200;-78
2022/06/16 12:59:01;;;;;;;3.72;1.88;;;32.10;51.70;;;;;;4985487;28;20212;-75
2022/06/16 13:01:29;;;;;;;3.65;1.90;;;32.10;49.30;;;;;;4986196;28;20711;-78
2022/06/16 13:04:03;;;;;;;4.95;1.88;;;32.20;50.00;;;;;;4984209;28;20200;-75
2022/06/16 13:06:33;;;;;;;3.97;2.13;;;32.20;49.90;;;;;;4986736;28;20201;-75
2022/06/16 13:09:06;;;;;;;3.03;1.63;;;32.40;50.50;;;;;;4982142;28;20235;-75
2022/06/16 13:11:42;;;;;;;3.15;1.92;;;32.40;49.30;;;;;;4983548;28;20285;-78
2022/06/16 13:14:15;;;;;;;4.05;1.92;;;32.40;48.40;;;;;;4985596;28;20193;-78
2022/06/16 13:16:49;;;;;;;7.43;2.47;;;32.30;48.70;;;;;;4977502;28;20187;-77
2022/06/16 13:19:20;;;;;;;4.10;1.90;;;32.30;48.40;;;;;;4982407;28;20192;-76
2022/06/16 13:21:54;;;;;;;3.17;1.60;;;32.30;48.30;;;;;;4982812;28;20197;-74
2022/06/16 13:24:36;;;;;;;4.38;1.70;;;32.40;48.80;;;;;;4977455;28;20216;-77
2022/06/16 13:27:11;;;;;;;2.63;1.75;;;32.50;49.40;;;;;;4976260;28;20193;-76
2022/06/16 13:29:52;;;;;;;4.55;1.80;;;32.40;47.80;;;;;;4978614;28;20204;-76
2022/06/16 13:32:34;;;;;;;7.28;1.70;;;32.40;47.50;;;;;;4979972;28;20195;-75
2022/06/16 13:35:31;;;;;;;4.88;1.95;;;32.30;47.80;;;;;;4981157;28;20193;-74
2022/06/16 13:38:36;;;;;;;4.35;2.00;;;32.30;47.90;;;;;;4982107;28;20216;-75
2022/06/16 13:41:44;;;;;;;6.15;2.20;;;32.20;47.60;;;;;;4971754;28;20197;-74